Time;durP1;ratioP1;P1;durP2;ratioP2;P2;SDS_P1;SDS_P2;PMS_P1;PMS_P2;Temp;Humidity;BMP_temperature;BMP_pressure;BME280_temperature;BME280_humidity;BME280_pressure;Samples;Min_cycle;Max_cycle;Signal;HPM_P1;HPM_P2
2021/06/20 00:00:35;;;;;;;1.75;1.50;;;;;;;25.59;40.31;94320.06;5096281;28;20398;-49
2021/06/20 00:03:07;;;;;;;3.55;1.50;;;;;;;25.80;39.73;94325.44;5095734;28;20454;-49
2021/06/20 00:05:37;;;;;;;;;;;;;;;25.98;39.54;94314.69;5117285;27;20041;-54
2021/06/20 00:08:10;;;;;;;4.20;1.40;;;;;;;26.16;39.44;94309.31;5116565;28;20245;-51
2021/06/20 00:10:39;;;;;;;3.40;1.52;;;;;;;25.93;39.67;94311.66;5106705;28;20051;-49
2021/06/20 00:13:06;;;;;;;5.95;1.70;;;;;;;25.98;39.59;94308.56;5097084;28;20094;-53
2021/06/20 00:15:35;;;;;;;4.22;2.00;;;;;;;25.99;39.44;94310.88;5108596;27;20480;-50
2021/06/20 00:18:03;;;;;;;2.10;1.50;;;;;;;26.30;38.76;94308.53;5118421;27;20043;-52
2021/06/20 00:20:33;;;;;;;3.33;1.50;;;;;;;26.12;39.39;94324.63;5116323;28;20044;-49
2021/06/20 00:23:00;;;;;;;3.58;1.80;;;;;;;26.06;39.61;94318.16;5116479;28;20047;-53
2021/06/20 00:25:28;;;;;;;2.03;1.50;;;;;;;26.36;39.16;94318.47;5116300;28;20044;-48
2021/06/20 00:28:06;;;;;;;4.93;1.70;;;;;;;26.09;39.47;94303.97;5116207;28;20353;-54
2021/06/20 00:30:36;;;;;;;2.55;1.88;;;;;;;25.54;40.63;94296.34;5116178;28;20051;-54
2021/06/20 00:33:04;;;;;;;3.80;2.00;;;;;;;26.04;39.73;94312.41;5115944;28;20047;-56
2021/06/20 00:35:31;;;;;;;5.70;2.05;;;;;;;25.77;40.26;94304.03;5094590;28;20055;-51
2021/06/20 00:37:58;;;;;;;10.55;2.10;;;;;;;25.95;40.23;94314.69;5112602;28;20051;-51
2021/06/20 00:40:25;;;;;;;3.35;1.85;;;;;;;25.75;40.16;94312.41;5115998;28;20047;-52
2021/06/20 00:42:52;;;;;;;4.50;2.00;;;;;;;25.98;40.02;94311.25;5116043;28;20454;-52
2021/06/20 00:45:21;;;;;;;4.22;2.10;;;;;;;25.60;40.94;94310.88;5107935;27;20396;-53
2021/06/20 00:47:48;;;;;;;6.00;2.10;;;;;;;25.98;39.94;94306.66;5102510;28;20043;-53
2021/06/20 00:50:16;;;;;;;3.38;2.10;;;;;;;25.76;40.26;94297.91;5115862;28;20122;-52
2021/06/20 00:52:43;;;;;;;3.15;2.22;;;;;;;25.44;41.20;94302.47;5114919;28;20058;-51
2021/06/20 00:55:11;;;;;;;5.30;1.90;;;;;;;25.22;41.44;94296.31;5115219;28;20053;-53
2021/06/20 00:57:39;;;;;;;3.33;2.00;;;;;;;25.18;41.43;94304.34;5115561;28;20066;-51
2021/06/20 01:00:08;;;;;;;4.07;1.95;;;;;;;25.53;40.48;94300.19;5103369;28;20439;-54
2021/06/20 01:02:36;;;;;;;3.13;2.20;;;;;;;25.27;41.31;94297.88;5095264;28;20059;-52
2021/06/20 01:05:07;;;;;;;4.35;2.25;;;;;;;25.41;41.03;94297.88;5111794;28;20361;-51
2021/06/20 01:07:34;;;;;;;3.45;1.90;;;;;;;25.58;40.58;94286.41;5114552;28;20055;-51
2021/06/20 01:10:02;;;;;;;3.05;2.08;;;;;;;25.90;39.80;94281.03;5115549;28;20044;-52
2021/06/20 01:12:30;;;;;;;2.33;1.80;;;;;;;25.57;40.39;94284.88;5115430;28;20362;-51
2021/06/20 01:14:57;;;;;;;3.38;2.00;;;;;;;26.36;38.96;94286.31;5115698;28;20052;-53
2021/06/20 01:17:24;;;;;;;2.90;2.13;;;;;;;25.53;40.50;94289.47;5132489;27;20047;-51
2021/06/20 01:19:51;;;;;;;6.53;2.40;;;;;;;25.47;40.74;94296.34;5135955;27;20357;-51
2021/06/20 01:22:21;;;;;;;2.85;1.70;;;;;;;25.98;39.58;94287.16;5135856;27;20050;-51
2021/06/20 01:24:53;;;;;;;3.80;1.90;;;;;;;25.62;40.33;94289.84;5120005;27;20046;-50
2021/06/20 01:27:21;;;;;;;;;;;;;;;25.72;40.33;94294.44;5115594;28;20043;-52
2021/06/20 01:29:49;;;;;;;5.43;2.20;;;;;;;25.93;40.18;94299.03;5094876;28;19928;-52
2021/06/20 01:32:17;;;;;;;5.03;2.75;;;;;;;26.37;39.31;94292.44;5094243;28;20040;-53
2021/06/20 01:34:47;;;;;;;3.20;2.08;;;;;;;25.77;40.70;94291.41;5109190;28;20052;-49
2021/06/20 01:37:17;;;;;;;4.78;2.47;;;;;;;26.27;39.67;94288.59;5114949;28;20048;-52
2021/06/20 01:39:45;;;;;;;3.72;1.80;;;;;;;26.10;40.11;94297.47;5115187;28;20052;-50
2021/06/20 01:42:14;;;;;;;4.20;1.98;;;;;;;25.36;41.36;94293.66;5115373;28;20048;-49
2021/06/20 01:44:52;;;;;;;3.35;2.03;;;;;;;25.63;40.29;94286.03;5114953;28;20043;-52
2021/06/20 01:47:21;;;;;;;4.82;2.22;;;;;;;25.54;40.39;94291.00;5129095;28;20050;-53
2021/06/20 01:49:48;;;;;;;6.78;2.65;;;;;;;25.25;41.24;94295.59;5135616;28;20043;-54
2021/06/20 01:52:22;;;;;;;7.22;2.50;;;;;;;25.35;40.57;94294.06;5135558;28;20039;-51
2021/06/20 01:54:50;;;;;;;5.78;2.30;;;;;;;25.73;39.80;94298.66;5120508;28;20062;-52
2021/06/20 01:57:31;;;;;;;3.78;2.50;;;;;;;24.98;40.96;94303.13;5114830;28;20051;-53
2021/06/20 02:00:00;;;;;;;6.03;2.90;;;;;;;24.89;41.33;94303.50;5115070;28;20489;-52
2021/06/20 02:02:29;;;;;;;2.88;2.33;;;;;;;24.89;41.32;94300.81;5114877;28;20284;-50
2021/06/20 02:04:57;;;;;;;5.28;2.45;;;;;;;25.11;40.46;94301.66;5114591;28;20048;-54
2021/06/20 02:07:25;;;;;;;3.72;2.50;;;;;;;24.96;41.09;94305.41;5114737;28;20046;-53
2021/06/20 02:09:53;;;;;;;4.90;2.30;;;;;;;24.75;41.66;94306.13;5114946;28;20054;-52
2021/06/20 02:12:23;;;;;;;3.45;2.63;;;;;;;24.96;41.39;94300.06;5114860;28;20048;-50
2021/06/20 02:14:51;;;;;;;3.28;2.50;;;;;;;25.40;40.48;94309.72;5113410;28;20052;-52
2021/06/20 02:17:31;;;;;;;5.28;2.20;;;;;;;25.15;40.53;94305.09;5133792;28;20079;-52
2021/06/20 02:20:10;;;;;;;3.15;2.53;;;;;;;24.97;41.13;94312.28;5135436;28;20031;-51
2021/06/20 02:22:39;;;;;;;2.90;2.10;;;;;;;25.34;40.32;94319.28;5135308;28;20047;-52
2021/06/20 02:25:11;;;;;;;3.45;2.47;;;;;;;25.16;40.53;94314.66;5119296;28;20047;-50
2021/06/20 02:27:39;;;;;;;3.60;2.63;;;;;;;25.07;40.80;94311.59;5113562;28;20357;-52
2021/06/20 02:30:07;;;;;;;4.13;2.60;;;;;;;24.96;41.54;94304.66;5114808;28;20043;-52
2021/06/20 02:32:35;;;;;;;4.18;2.53;;;;;;;24.49;42.47;94309.09;5114640;28;20374;-52
2021/06/20 02:35:02;;;;;;;2.45;1.95;;;;;;;25.03;41.00;94305.47;5113434;28;20525;-51
2021/06/20 02:37:31;;;;;;;3.97;2.55;;;;;;;24.87;41.33;94292.41;5114533;28;20051;-50
2021/06/20 02:39:59;;;;;;;3.83;2.55;;;;;;;24.97;40.96;94301.59;5114648;28;20492;-51
2021/06/20 02:42:26;;;;;;;7.68;2.75;;;;;;;24.88;41.34;94303.88;5114843;28;20044;-50
2021/06/20 02:44:54;;;;;;;3.70;2.47;;;;;;;24.60;42.42;94308.00;5118430;27;20456;-50
2021/06/20 02:47:21;;;;;;;3.88;2.75;;;;;;;24.59;42.18;94306.47;5117789;28;20054;-51
2021/06/20 02:49:48;;;;;;;3.55;2.60;;;;;;;24.57;42.20;94303.41;5118251;28;20047;-51
2021/06/20 02:52:16;;;;;;;2.53;2.33;;;;;;;24.37;42.63;94310.19;5118203;28;20051;-51
2021/06/20 02:54:49;;;;;;;3.78;2.38;;;;;;;24.49;42.42;94307.19;5117803;28;20055;-52
2021/06/20 02:57:22;;;;;;;3.83;2.50;;;;;;;24.56;42.03;94311.78;5115188;28;20047;-50
2021/06/20 02:59:51;;;;;;;3.47;2.80;;;;;;;24.82;41.67;94316.84;5118174;27;20047;-52
2021/06/20 03:02:18;;;;;;;5.82;2.70;;;;;;;24.60;41.82;94310.66;5117886;28;20047;-54
2021/06/20 03:04:46;;;;;;;5.82;2.42;;;;;;;24.39;42.11;94309.78;5117907;27;20044;-51
2021/06/20 03:07:14;;;;;;;3.97;2.38;;;;;;;24.40;41.90;94304.09;5117285;28;20489;-53
2021/06/20 03:09:41;;;;;;;5.25;2.70;;;;;;;24.84;41.15;94295.09;5117901;28;20058;-51
2021/06/20 03:12:09;;;;;;;6.78;2.78;;;;;;;24.23;42.58;94302.06;5117642;28;20082;-51
2021/06/20 03:14:36;;;;;;;5.05;2.80;;;;;;;24.31;42.42;94303.66;5117570;28;20052;-50
2021/06/20 03:17:05;;;;;;;5.20;2.83;;;;;;;24.63;42.01;94303.78;5119289;27;20051;-51
2021/06/20 03:19:36;;;;;;;3.55;3.05;;;;;;;24.76;41.64;94302.31;5117692;28;20058;-51
2021/06/20 03:22:04;;;;;;;3.03;2.67;;;;;;;25.10;40.86;94305.47;5117618;28;20055;-53
2021/06/20 03:24:34;;;;;;;6.32;2.90;;;;;;;24.74;41.59;94298.50;5117357;27;20046;-56
2021/06/20 03:27:01;;;;;;;4.22;2.72;;;;;;;24.52;42.14;94303.00;5117013;27;20048;-51
2021/06/20 03:29:29;;;;;;;6.38;2.88;;;;;;;24.71;41.99;94307.25;5117557;28;20052;-53
2021/06/20 03:31:56;;;;;;;4.40;2.60;;;;;;;24.41;42.46;94316.28;5117393;28;20481;-53
2021/06/20 03:34:23;;;;;;;4.75;2.38;;;;;;;24.69;42.12;94306.88;5117014;28;20056;-52
2021/06/20 03:36:51;;;;;;;3.83;2.38;;;;;;;24.79;41.96;94306.16;5116879;27;20047;-51
2021/06/20 03:39:18;;;;;;;2.90;2.60;;;;;;;24.49;42.87;94315.22;5117349;27;20473;-53
2021/06/20 03:41:46;;;;;;;4.30;2.20;;;;;;;24.47;42.85;94312.16;5117195;27;20048;-50
2021/06/20 03:44:13;;;;;;;4.97;2.30;;;;;;;24.74;42.48;94309.19;5116996;28;20365;-52
2021/06/20 03:46:40;;;;;;;6.38;2.65;;;;;;;24.87;42.31;94292.41;5117966;27;20051;-51
2021/06/20 03:49:07;;;;;;;4.97;2.10;;;;;;;25.00;42.25;94295.53;5109093;28;20048;-53
2021/06/20 03:51:34;;;;;;;3.00;2.70;;;;;;;24.90;42.57;94307.69;5096594;28;20051;-51
2021/06/20 03:54:02;;;;;;;4.05;2.72;;;;;;;25.26;41.87;94299.78;5096064;28;20052;-50
2021/06/20 03:56:31;;;;;;;4.30;2.53;;;;;;;25.37;42.13;94299.78;5107046;28;20417;-51
2021/06/20 03:58:58;;;;;;;3.45;2.67;;;;;;;25.07;42.72;94300.91;5116970;28;20058;-51
2021/06/20 04:01:25;;;;;;;3.00;2.60;;;;;;;25.53;41.92;94286.81;5116832;28;20370;-53
2021/06/20 04:03:52;;;;;;;2.80;2.40;;;;;;;25.36;42.47;94295.59;5116559;28;20358;-50
2021/06/20 04:06:19;;;;;;;3.38;2.78;;;;;;;25.56;41.83;94304.00;5116123;28;20040;-50
2021/06/20 04:08:46;;;;;;;3.40;2.65;;;;;;;25.80;41.36;94293.31;5115597;28;20048;-52
2021/06/20 04:11:13;;;;;;;3.00;2.70;;;;;;;25.99;40.95;94299.38;5116670;28;20365;-51
2021/06/20 04:13:40;;;;;;;3.47;2.75;;;;;;;25.74;41.51;94307.44;5116541;28;20048;-51
2021/06/20 04:16:08;;;;;;;3.80;2.97;;;;;;;25.54;42.21;94312.41;5118294;27;20047;-51
2021/06/20 04:18:35;;;;;;;3.75;3.25;;;;;;;25.56;42.76;94315.47;5116454;28;20046;-50
2021/06/20 04:21:02;;;;;;;7.13;3.72;;;;;;;25.15;43.89;94315.03;5116282;27;20369;-50
2021/06/20 04:23:29;;;;;;;7.57;3.47;;;;;;;25.39;43.84;94321.56;5116482;28;20059;-52
2021/06/20 04:25:56;;;;;;;3.78;3.13;;;;;;;26.06;42.88;94321.59;5116059;28;20050;-52
2021/06/20 04:28:23;;;;;;;4.60;3.13;;;;;;;26.12;42.57;94321.94;5116350;28;20051;-50
2021/06/20 04:30:56;;;;;;;4.55;3.53;;;;;;;25.67;44.29;94329.63;5116069;28;20055;-49
2021/06/20 04:33:24;;;;;;;3.97;3.28;;;;;;;26.36;42.67;94321.16;5111443;28;20054;-50
2021/06/20 04:35:51;;;;;;;3.90;3.42;;;;;;;26.18;43.17;94328.44;5112305;28;20361;-51
2021/06/20 04:38:19;;;;;;;5.53;3.78;;;;;;;26.04;42.54;94336.50;5116253;28;20466;-50
2021/06/20 04:40:48;;;;;;;5.03;3.45;;;;;;;26.23;43.12;94325.34;5115787;28;20043;-57
2021/06/20 04:46:30;;;;;;;5.05;3.05;;;;;;;26.57;42.59;94324.94;5100858;28;20438;-49
2021/06/20 04:48:58;;;;;;;3.35;3.05;;;;;;;26.66;42.50;94330.63;5115771;28;20053;-53
2021/06/20 04:51:27;;;;;;;4.93;3.13;;;;;;;26.66;41.57;94327.94;5115814;28;20074;-49
2021/06/20 04:53:54;;;;;;;5.28;3.15;;;;;;;26.70;42.17;94334.06;5115359;28;20480;-53
2021/06/20 04:56:21;;;;;;;4.68;3.00;;;;;;;26.70;42.62;94332.13;5115180;28;20078;-49
2021/06/20 04:58:48;;;;;;;5.53;3.17;;;;;;;26.98;42.15;94339.28;5115190;28;20440;-50
2021/06/20 05:01:16;;;;;;;4.35;3.33;;;;;;;27.03;42.15;94338.91;5106797;28;20051;-53
2021/06/20 05:03:43;;;;;;;5.10;3.20;;;;;;;27.11;41.30;94344.25;5114500;27;20056;-47
2021/06/20 05:06:10;;;;;;;4.32;3.92;;;;;;;27.21;41.14;94338.81;5114154;28;20054;-50
2021/06/20 05:08:37;;;;;;;3.50;3.20;;;;;;;28.08;39.50;94337.78;5115298;28;20043;-50
2021/06/20 05:11:04;;;;;;;4.82;3.50;;;;;;;27.07;40.84;94333.53;5115407;28;20043;-50
2021/06/20 05:13:31;;;;;;;3.63;3.33;;;;;;;27.57;39.92;94339.34;5115244;28;20047;-50
2021/06/20 05:15:59;;;;;;;4.13;3.20;;;;;;;27.54;40.44;94332.06;5119101;27;20056;-53
2021/06/20 05:18:26;;;;;;;3.65;3.10;;;;;;;27.28;40.32;94332.63;5101870;28;20059;-52
2021/06/20 05:20:53;;;;;;;5.43;3.53;;;;;;;28.18;38.40;94328.13;5095069;28;20047;-51
2021/06/20 05:23:21;;;;;;;3.83;3.00;;;;;;;27.78;39.68;94335.00;5095062;28;20059;-51
2021/06/20 05:25:48;;;;;;;3.22;2.92;;;;;;;27.98;38.64;94340.59;5098591;28;20063;-53
2021/06/20 05:28:15;;;;;;;3.97;2.70;;;;;;;28.19;38.52;94335.78;5104834;28;20047;-50
2021/06/20 05:30:45;;;;;;;3.10;2.80;;;;;;;28.51;37.46;94332.78;5094666;28;20854;-49
2021/06/20 05:33:18;;;;;;;3.25;2.80;;;;;;;28.56;37.98;94339.63;5094595;28;20055;-52
2021/06/20 05:35:46;;;;;;;3.03;2.40;;;;;;;28.60;37.22;94345.72;5095132;28;20051;-49
2021/06/20 05:38:14;;;;;;;2.60;2.40;;;;;;;28.62;37.04;94346.09;5115294;28;20051;-50
2021/06/20 05:40:42;;;;;;;4.45;2.53;;;;;;;29.01;37.20;94355.66;5113886;28;20044;-49
2021/06/20 05:43:09;;;;;;;4.05;2.53;;;;;;;28.63;38.12;94355.72;5114979;28;20047;-51
2021/06/20 05:45:37;;;;;;;4.38;2.60;;;;;;;29.03;36.43;94354.09;5117560;28;20453;-53
2021/06/20 05:48:04;;;;;;;5.45;2.72;;;;;;;28.94;36.57;94355.75;5114918;28;20047;-52
2021/06/20 05:50:31;;;;;;;5.03;2.40;;;;;;;28.55;37.14;94348.88;5114661;28;20058;-51
2021/06/20 05:52:58;;;;;;;3.40;2.40;;;;;;;28.92;35.62;94352.72;5114826;28;20046;-54
2021/06/20 05:55:25;;;;;;;4.43;2.78;;;;;;;28.88;36.25;94350.03;5114753;28;20043;-53
2021/06/20 05:57:53;;;;;;;3.47;2.95;;;;;;;28.30;37.96;94351.06;5114744;28;20050;-49
2021/06/20 06:00:20;;;;;;;3.60;3.03;;;;;;;28.30;37.98;94348.38;5099627;28;20390;-54
2021/06/20 06:02:47;;;;;;;3.88;2.90;;;;;;;28.27;38.29;94341.09;5094431;28;20423;-53
2021/06/20 06:05:14;;;;;;;4.35;2.85;;;;;;;28.08;38.36;94337.78;5094486;28;20051;-55
2021/06/20 06:07:44;;;;;;;4.47;3.28;;;;;;;28.57;37.14;94333.09;5111103;28;20052;-49
2021/06/20 06:10:12;;;;;;;3.53;3.22;;;;;;;28.50;37.26;94328.56;5110572;28;20406;-55
2021/06/20 06:12:39;;;;;;;4.30;3.38;;;;;;;29.08;36.92;94320.56;5103206;28;20048;-49
2021/06/20 06:15:07;;;;;;;3.15;2.85;;;;;;;29.07;36.85;94321.75;5098231;28;20048;-49
2021/06/20 06:17:34;;;;;;;4.10;2.50;;;;;;;29.76;34.50;94312.28;5118111;28;20056;-49
2021/06/20 06:20:02;;;;;;;2.90;2.70;;;;;;;29.68;34.86;94313.59;5098208;28;20435;-51
2021/06/20 06:22:29;;;;;;;5.70;3.05;;;;;;;29.79;34.89;94306.09;5098305;28;20067;-51
2021/06/20 06:24:56;;;;;;;5.05;2.80;;;;;;;29.73;34.58;94302.34;5097973;28;20051;-51
2021/06/20 06:27:23;;;;;;;3.00;2.65;;;;;;;29.93;32.90;94305.84;5095224;28;20397;-48
2021/06/20 06:29:50;;;;;;;2.47;2.28;;;;;;;30.25;33.09;94304.56;5107025;28;20048;-51
2021/06/20 06:32:17;;;;;;;2.97;2.45;;;;;;;30.29;33.55;94305.25;5098002;28;20048;-52
2021/06/20 06:34:45;;;;;;;2.78;2.10;;;;;;;30.47;33.70;94302.22;5097699;28;20386;-55
2021/06/20 06:37:12;;;;;;;2.80;2.60;;;;;;;31.01;32.32;94299.97;5101721;28;20063;-53
2021/06/20 06:39:39;;;;;;;3.35;3.00;;;;;;;30.75;33.86;94292.84;5097953;28;20477;-58
2021/06/20 06:42:06;;;;;;;3.67;2.60;;;;;;;31.09;32.62;94301.34;5117584;28;20048;-52
2021/06/20 06:44:33;;;;;;;4.68;3.33;;;;;;;31.08;33.34;94294.44;5118266;28;20044;-52
2021/06/20 06:47:00;;;;;;;4.55;3.13;;;;;;;31.07;33.75;94300.25;5126103;27;20048;-54
2021/06/20 06:49:27;;;;;;;4.10;2.63;;;;;;;31.54;32.21;94303.47;5118118;28;20051;-50
2021/06/20 06:51:55;;;;;;;3.22;2.30;;;;;;;31.63;32.05;94298.22;5111745;28;20043;-50
2021/06/20 06:54:23;;;;;;;4.38;2.38;;;;;;;32.03;31.67;94314.28;5117807;28;20085;-50
2021/06/20 06:56:50;;;;;;;4.13;2.53;;;;;;;31.55;31.83;94310.38;5117736;28;20086;-54
2021/06/20 06:59:17;;;;;;;2.67;2.20;;;;;;;31.63;32.24;94311.72;5116751;28;20047;-52
2021/06/20 07:01:44;;;;;;;2.55;1.85;;;;;;;31.93;31.18;94310.63;5117890;28;20043;-49
2021/06/20 07:04:11;;;;;;;4.00;2.22;;;;;;;32.10;30.63;94319.47;5117655;28;20473;-50
2021/06/20 07:06:38;;;;;;;2.90;2.05;;;;;;;32.29;31.82;94324.03;5117621;28;20043;-50
2021/06/20 07:09:06;;;;;;;2.00;1.63;;;;;;;32.77;30.83;94314.22;5103090;28;20050;-47
2021/06/20 07:11:33;;;;;;;2.28;1.50;;;;;;;32.92;31.06;94306.50;5100598;28;20058;-47
2021/06/20 07:14:00;;;;;;;5.63;1.70;;;;;;;32.38;30.34;94304.50;5117620;27;20050;-53
2021/06/20 07:16:27;;;;;;;2.03;1.48;;;;;;;32.42;30.22;94300.50;5126528;27;20051;-49
2021/06/20 07:18:54;;;;;;;1.42;1.20;;;;;;;32.60;29.86;94304.66;5117592;28;20043;-58
2021/06/20 07:21:21;;;;;;;3.28;1.27;;;;;;;32.55;29.40;94297.09;5117488;28;20469;-50
2021/06/20 07:23:49;;;;;;;2.58;1.35;;;;;;;32.82;29.66;94299.44;5117090;28;20043;-49
2021/06/20 07:26:16;;;;;;;2.45;1.30;;;;;;;32.81;28.45;94296.00;5117066;28;20043;-53
2021/06/20 07:28:45;;;;;;;5.40;1.25;;;;;;;33.21;28.71;94293.63;5113722;28;20055;-47
2021/06/20 07:31:12;;;;;;;1.75;1.30;;;;;;;33.18;28.78;94285.63;5097098;28;20046;-49
2021/06/20 07:33:40;;;;;;;3.75;1.05;;;;;;;33.29;28.34;94291.44;5116966;28;20056;-50
2021/06/20 07:36:10;;;;;;;2.45;1.10;;;;;;;33.05;28.06;94286.38;5116610;28;20055;-53
2021/06/20 07:38:37;;;;;;;2.78;1.15;;;;;;;33.57;28.57;94282.50;5117038;28;20050;-49
2021/06/20 07:41:05;;;;;;;2.10;1.30;;;;;;;33.46;27.86;94282.06;5117207;28;20051;-49
2021/06/20 07:43:32;;;;;;;1.55;1.23;;;;;;;33.36;28.01;94283.16;5116418;28;20051;-49
2021/06/20 07:45:59;;;;;;;3.33;1.20;;;;;;;33.70;28.78;94285.94;5126489;27;20047;-56
2021/06/20 07:48:27;;;;;;;1.58;1.20;;;;;;;33.82;28.27;94287.06;5102381;27;20044;-52
2021/06/20 07:50:55;;;;;;;2.70;1.52;;;;;;;34.03;28.64;94280.22;5097011;28;20048;-49
2021/06/20 07:53:22;;;;;;;4.10;1.13;;;;;;;34.60;26.69;94289.13;5113147;28;20043;-50
2021/06/20 07:55:50;;;;;;;3.22;1.40;;;;;;;34.45;26.93;94288.13;5117025;28;20072;-50
2021/06/20 07:58:17;;;;;;;2.53;1.75;;;;;;;34.42;26.09;94280.88;5105465;28;20049;-49
2021/06/20 08:00:44;;;;;;;3.33;1.70;;;;;;;34.87;26.88;94286.63;5096092;28;20048;-51
2021/06/20 08:03:11;;;;;;;4.35;1.70;;;;;;;34.51;26.71;94278.22;5106313;28;20051;-50
2021/06/20 08:05:38;;;;;;;6.65;1.60;;;;;;;34.87;26.72;94286.63;5096521;28;20465;-59
2021/06/20 08:08:06;;;;;;;3.10;1.27;;;;;;;34.42;26.38;94283.59;5111479;28;20066;-51
2021/06/20 08:10:33;;;;;;;2.67;1.30;;;;;;;34.70;24.98;94266.28;5116529;28;20460;-48
2021/06/20 08:13:00;;;;;;;3.45;1.50;;;;;;;34.32;26.26;94275.34;5116441;28;20043;-52
2021/06/20 08:15:27;;;;;;;3.15;1.90;;;;;;;34.66;25.98;94281.94;5120768;27;20351;-49
2021/06/20 08:17:54;;;;;;;2.30;1.60;;;;;;;34.86;26.04;94278.91;5122123;27;20043;-51
2021/06/20 08:20:22;;;;;;;4.70;1.77;;;;;;;35.13;25.06;94286.41;5116562;28;20043;-50
2021/06/20 08:22:49;;;;;;;2.03;1.55;;;;;;;34.87;25.83;94281.19;5105170;28;20059;-51
2021/06/20 08:25:16;;;;;;;6.72;1.63;;;;;;;34.90;25.17;94279.53;5095802;28;20043;-50
2021/06/20 08:27:43;;;;;;;3.47;1.77;;;;;;;35.00;25.14;94283.06;5108377;28;20039;-50
2021/06/20 08:30:11;;;;;;;6.03;4.93;;;;;;;34.87;24.96;94285.84;5116328;28;20047;-51
2021/06/20 08:32:39;;;;;;;5.93;3.03;;;;;;;35.18;23.68;94283.91;5109765;28;20063;-48
2021/06/20 08:35:07;;;;;;;7.03;4.72;;;;;;;34.84;25.66;94276.63;5095905;28;20063;-51
2021/06/20 08:37:34;;;;;;;3.42;1.70;;;;;;;34.91;23.88;94281.81;5106502;28;20058;-52
2021/06/20 08:40:02;;;;;;;2.92;1.50;;;;;;;34.95;25.55;94275.50;5115197;28;20051;-51
2021/06/20 08:42:29;;;;;;;1.98;1.35;;;;;;;34.91;24.88;94281.06;5115484;28;20043;-51
2021/06/20 08:44:56;;;;;;;3.33;1.20;;;;;;;34.45;25.58;94288.13;5115631;27;20047;-49
2021/06/20 08:47:23;;;;;;;2.40;1.30;;;;;;;34.49;25.89;94288.75;5125509;27;20044;-49
2021/06/20 08:49:50;;;;;;;2.60;1.52;;;;;;;35.11;25.14;94289.56;5106791;28;20040;-45
2021/06/20 08:52:17;;;;;;;3.53;1.17;;;;;;;34.71;25.24;94284.06;5100552;28;20043;-43
2021/06/20 08:55:04;;;;;;;3.20;2.13;;;;;;;35.34;25.12;94280.19;5102801;28;20054;-67
2021/06/20 08:57:34;;;;;;;3.15;1.20;;;;;;;35.59;24.76;94286.59;5105215;28;20058;-43
2021/06/20 09:00:03;;;;;;;3.67;2.47;;;;;;;35.81;23.54;94281.81;5115786;28;20085;-42
2021/06/20 09:02:30;;;;;;;1.95;1.30;;;;;;;35.98;24.43;94277.66;5112686;28;20465;-53
2021/06/20 09:05:03;;;;;;;2.00;1.20;;;;;;;36.43;23.97;94284.31;5095367;28;20051;-47
2021/06/20 09:07:36;;;;;;;2.13;1.50;;;;;;;36.75;24.04;94274.75;5098051;28;20040;-48
2021/06/20 09:10:17;;;;;;;1.27;1.17;;;;;;;36.19;23.13;94269.81;5095662;28;20051;-46
2021/06/20 09:12:51;;;;;;;1.92;1.20;;;;;;;36.39;22.84;94272.84;5096072;28;20370;-48
2021/06/20 09:15:24;;;;;;;3.88;1.50;;;;;;;36.20;24.29;94272.09;5102258;27;20043;-49
2021/06/20 09:17:56;;;;;;;4.82;3.50;;;;;;;36.49;24.23;94268.91;5113397;27;20047;-55
2021/06/20 09:20:51;;;;;;;3.03;1.60;;;;;;;36.77;23.87;94266.13;5095136;28;20446;-51
2021/06/20 09:23:19;;;;;;;4.07;2.92;;;;;;;37.58;22.68;94269.81;5094218;28;20048;-62
2021/06/20 09:25:57;;;;;;;5.63;3.30;;;;;;;36.70;23.53;94270.69;5095295;28;20063;-42
2021/06/20 09:28:32;;;;;;;6.35;5.75;;;;;;;36.82;22.06;94271.75;5098958;28;20051;-47
2021/06/20 09:31:02;;;;;;;4.40;2.33;;;;;;;37.29;22.44;94276.59;5094952;28;20048;-45
2021/06/20 09:33:33;;;;;;;2.63;1.58;;;;;;;36.76;22.86;94284.44;5102082;28;20044;-46
2021/06/20 09:36:01;;;;;;;2.00;1.33;;;;;;;37.34;22.45;94273.25;5094827;28;20055;-46
2021/06/20 09:38:31;;;;;;;8.23;2.10;;;;;;;37.00;22.42;94279.88;5109900;28;20438;-48
2021/06/20 09:41:10;;;;;;;5.38;1.60;;;;;;;37.39;22.30;94269.13;5115149;28;20047;-45
2021/06/20 09:43:44;;;;;;;2.65;1.30;;;;;;;36.70;20.92;94259.81;5110081;28;20055;-50
2021/06/20 09:46:11;;;;;;;1.73;0.93;;;;;;;37.20;21.26;94252.06;5115569;28;20035;-53
2021/06/20 09:48:38;;;;;;;2.85;1.35;;;;;;;36.87;21.06;94248.56;5117368;28;20062;-48
2021/06/20 09:51:22;;;;;;;2.10;1.70;;;;;;;37.16;21.23;94262.38;5113876;28;20051;-54
2021/06/20 09:53:50;;;;;;;2.75;1.00;;;;;;;37.57;20.55;94254.66;5115842;28;20044;-54
2021/06/20 09:56:20;;;;;;;4.80;0.90;;;;;;;37.07;21.45;94261.69;5114429;28;20055;-54
2021/06/20 09:59:05;;;;;;;1.40;1.27;;;;;;;37.12;21.78;94256.34;5109908;28;20047;-42
2021/06/20 10:01:34;;;;;;;1.35;1.00;;;;;;;36.89;22.03;94248.88;5115779;27;20293;-43
2021/06/20 10:04:02;;;;;;;1.45;1.20;;;;;;;36.73;22.57;94244.50;5114325;28;20048;-51
2021/06/20 10:06:29;;;;;;;1.55;1.17;;;;;;;36.98;22.62;94241.44;5117083;28;20039;-48
2021/06/20 10:08:56;;;;;;;3.00;0.95;;;;;;;37.10;23.56;94239.72;5114768;28;20457;-48
2021/06/20 10:11:24;;;;;;;1.40;1.00;;;;;;;36.98;22.97;94240.69;5115589;28;20051;-46
2021/06/20 10:13:51;;;;;;;1.30;1.20;;;;;;;36.60;22.74;94233.78;5115171;28;20055;-44
2021/06/20 10:16:21;;;;;;;3.15;1.00;;;;;;;37.16;23.20;94237.13;5125134;27;20433;-39
2021/06/20 10:18:55;;;;;;;1.85;1.13;;;;;;;36.45;23.16;94230.22;5117772;27;20059;-43
2021/06/20 10:21:35;;;;;;;2.25;0.80;;;;;;;37.22;22.14;94227.88;5117828;28;20047;-38
2021/06/20 10:24:17;;;;;;;1.90;0.95;;;;;;;37.23;22.01;94232.09;5118266;28;20058;-44
2021/06/20 10:26:55;;;;;;;7.88;7.15;;;;;;;37.23;22.10;94223.94;5116926;28;20036;-41
2021/06/20 10:29:24;;;;;;;7.43;6.72;;;;;;;37.60;22.27;94226.47;5103209;28;20066;-42
2021/06/20 10:31:52;;;;;;;11.35;10.05;;;;;;;37.38;21.39;94218.56;5118628;28;20043;-40
2021/06/20 10:34:33;;;;;;;5.22;3.70;;;;;;;36.85;22.45;94221.06;5118042;28;20059;-39
2021/06/20 10:37:16;;;;;;;1.77;1.40;;;;;;;37.83;21.38;94223.00;5118663;28;20070;-41
2021/06/20 10:39:52;;;;;;;1.85;1.30;;;;;;;37.59;21.47;94222.25;5117178;28;20050;-41
2021/06/20 10:42:30;;;;;;;1.48;1.13;;;;;;;37.25;21.22;94215.31;5118103;28;20051;-41
2021/06/20 10:44:57;;;;;;;3.13;1.40;;;;;;;37.18;21.93;94208.19;5119077;27;20395;-39
2021/06/20 10:47:35;;;;;;;2.67;1.50;;;;;;;37.11;21.92;94218.69;5138657;27;20050;-45
2021/06/20 10:50:13;;;;;;;5.07;1.20;;;;;;;37.05;22.02;94213.09;5119530;27;20047;-40
2021/06/20 10:52:43;;;;;;;1.58;1.23;;;;;;;36.44;22.27;94215.09;5117851;28;20047;-49
2021/06/20 10:55:14;;;;;;;1.58;1.10;;;;;;;36.12;22.66;94211.75;5118078;28;20050;-47
2021/06/20 10:57:45;;;;;;;;;;;;;;;35.80;22.50;94207.66;5118611;28;20040;-50
2021/06/20 11:00:23;;;;;;;2.00;1.10;;;;;;;36.47;23.08;94203.28;5117956;28;19993;-45
2021/06/20 11:02:51;;;;;;;3.67;1.30;;;;;;;36.31;22.17;94192.72;5117181;28;20048;-46
2021/06/20 11:05:25;;;;;;;1.45;1.00;;;;;;;36.21;22.56;94191.22;5117496;28;20043;-41
2021/06/20 11:08:04;;;;;;;2.13;1.10;;;;;;;36.07;22.75;94193.31;5118060;28;20555;-41
2021/06/20 11:10:31;;;;;;;3.80;1.50;;;;;;;36.38;22.61;94181.53;5111337;28;20054;-48
2021/06/20 11:12:58;;;;;;;3.60;1.60;;;;;;;35.96;23.08;94187.59;5116394;28;20039;-46
2021/06/20 11:15:27;;;;;;;2.08;1.13;;;;;;;36.23;24.14;94186.06;5118019;27;20369;-45
2021/06/20 11:18:07;;;;;;;1.35;1.15;;;;;;;36.21;23.82;94191.22;5138178;27;20043;-40
2021/06/20 11:20:36;;;;;;;1.67;1.13;;;;;;;36.12;23.43;94187.28;5124251;27;20058;-39
2021/06/20 11:23:04;;;;;;;1.58;1.02;;;;;;;36.12;23.56;94178.34;5117403;28;20044;-40
2021/06/20 11:25:31;;;;;;;1.80;0.95;;;;;;;35.81;24.26;94176.53;5117915;28;20439;-45
2021/06/20 11:27:58;;;;;;;2.15;0.80;;;;;;;36.35;23.64;94157.94;5117942;27;20039;-40
2021/06/20 11:30:25;;;;;;;1.60;0.90;;;;;;;35.95;23.27;94169.03;5117269;28;20054;-39
2021/06/20 11:32:52;;;;;;;5.90;5.32;;;;;;;36.74;22.54;94167.06;5122509;27;20054;-40
2021/06/20 11:35:20;;;;;;;8.43;6.85;;;;;;;35.98;23.60;94173.56;5137970;27;20054;-39
2021/06/20 11:37:55;;;;;;;2.20;1.90;;;;;;;36.78;21.33;94164.16;5137813;27;20043;-39
2021/06/20 11:40:24;;;;;;;2.20;1.30;;;;;;;36.64;22.17;94155.44;5137596;27;20047;-39
2021/06/20 11:42:56;;;;;;;2.45;1.20;;;;;;;36.34;22.42;94151.00;5137444;27;20050;-40
2021/06/20 11:45:26;;;;;;;2.60;1.20;;;;;;;36.20;22.33;94146.19;5137422;27;20470;-39